Time;durP1;ratioP1;P1;durP2;ratioP2;P2;SDS_P1;SDS_P2;PMS_P1;PMS_P2;Temp;Humidity;BMP_temperature;BMP_pressure;BME280_temperature;BME280_humidity;BME280_pressure;Samples;Min_cycle;Max_cycle;Signal;HPM_P1;HPM_P2
2022/04/07 00:01:14;;;;;;;;;;;9.90;99.90;;;;;;4304688;33;44845;-93
2022/04/07 00:03:42;;;;;;;;;;;10.00;99.90;;;;;;4291499;33;44826;-92
2022/04/07 00:06:09;;;;;;;;;;;10.00;99.90;;;;;;4291602;33;44390;-93
2022/04/07 00:08:37;;;;;;;;;;;9.90;99.90;;;;;;4292195;33;45667;-93
2022/04/07 00:11:04;;;;;;;;;;;10.00;99.90;;;;;;4304955;33;42873;-92
2022/04/07 00:13:31;;;;;;;;;;;10.00;99.90;;;;;;4291600;33;44917;-93
2022/04/07 00:16:00;;;;;;;;;;;10.00;99.90;;;;;;4291526;33;43104;-93
2022/04/07 00:18:27;;;;;;;;;;;9.90;99.90;;;;;;4291484;33;43262;-92
2022/04/07 00:20:54;;;;;;;;;;;9.90;99.90;;;;;;4291177;33;44565;-92
2022/04/07 00:23:21;;;;;;;;;;;10.00;99.90;;;;;;4291782;33;45462;-91
2022/04/07 00:25:50;;;;;;;;;;;9.90;99.90;;;;;;4291701;33;43341;-92
2022/04/07 00:28:17;;;;;;;;;;;9.90;99.90;;;;;;4291563;33;45573;-92
2022/04/07 00:30:45;;;;;;;;;;;10.00;99.90;;;;;;4304357;33;43113;-91
2022/04/07 00:33:12;;;;;;;;;;;10.00;99.90;;;;;;4291399;33;44983;-91
2022/04/07 00:35:39;;;;;;;;;;;10.00;99.90;;;;;;4304527;33;44997;-92
2022/04/07 00:38:06;;;;;;;;;;;10.00;99.90;;;;;;4290386;33;43564;-92
2022/04/07 00:40:33;;;;;;;;;;;10.00;99.90;;;;;;4291150;33;46216;-92
2022/04/07 00:43:00;;;;;;;;;;;10.00;99.90;;;;;;4290881;33;42902;-91
2022/04/07 00:45:27;;;;;;;;;;;10.00;99.90;;;;;;4291029;33;43496;-92
2022/04/07 00:47:54;;;;;;;;;;;10.00;99.90;;;;;;4291368;33;43469;-91
2022/04/07 00:50:21;;;;;;;;;;;10.00;99.90;;;;;;4303927;33;44794;-90
2022/04/07 00:52:53;;;;;;;;;;;10.00;99.90;;;;;;4290693;33;42224;-91
2022/04/07 00:55:21;;;;;;;;;;;10.00;99.90;;;;;;4290575;33;44926;-91
2022/04/07 00:57:48;;;;;;;;;;;10.00;99.90;;;;;;4291041;33;43235;-92
2022/04/07 01:00:15;;;;;;;;;;;10.00;99.90;;;;;;4291237;33;44801;-92
2022/04/07 01:02:43;;;;;;;;;;;10.00;99.90;;;;;;4303512;33;42255;-92
2022/04/07 01:05:10;;;;;;;;;;;10.00;99.90;;;;;;4290614;33;44086;-91
2022/04/07 01:07:39;;;;;;;;;;;10.00;99.90;;;;;;4303881;33;45682;-92
2022/04/07 01:10:08;;;;;;;;;;;10.00;99.90;;;;;;4290091;33;44780;-90
2022/04/07 01:12:35;;;;;;;;;;;10.00;99.90;;;;;;4290393;33;42824;-91
2022/04/07 01:15:06;;;;;;;;;;;9.90;99.90;;;;;;4290706;33;44948;-90
2022/04/07 01:17:34;;;;;;;;;;;10.00;99.90;;;;;;4303704;33;44958;-91
2022/04/07 01:20:03;;;;;;;;;;;10.00;99.90;;;;;;4290166;33;43168;-91
2022/04/07 01:22:30;;;;;;;;;;;10.00;99.90;;;;;;4290277;33;44095;-91
2022/04/07 01:24:57;;;;;;;;;;;10.00;99.90;;;;;;4290313;33;44290;-91
2022/04/07 01:27:24;;;;;;;;;;;10.00;99.90;;;;;;4290743;33;43071;-92
2022/04/07 01:29:52;;;;;;;;;;;9.90;99.90;;;;;;4290484;33;44680;-91
2022/04/07 01:32:26;;;;;;;;;;;9.90;99.90;;;;;;4290297;33;43561;-91
2022/04/07 01:34:53;;;;;;;;;;;9.90;99.90;;;;;;4290379;33;45063;-90
2022/04/07 01:37:21;;;;;;;;;;;9.90;99.90;;;;;;4289863;33;43108;-89
2022/04/07 01:39:50;;;;;;;;;;;9.90;99.90;;;;;;4289524;33;44210;-90
2022/04/07 01:42:17;;;;;;;;;;;9.90;99.90;;;;;;4289409;33;44402;-91
2022/04/07 01:44:49;;;;;;;;;;;9.90;99.90;;;;;;4302696;33;43374;-90
2022/04/07 01:47:18;;;;;;;;;;;9.90;99.90;;;;;;4289481;33;43033;-91
2022/04/07 01:49:46;;;;;;;;;;;9.90;99.90;;;;;;4302318;33;45072;-89
2022/04/07 01:52:13;;;;;;;;;;;9.90;99.90;;;;;;4302962;33;44764;-90
2022/04/07 01:54:44;;;;;;;;;;;9.90;99.90;;;;;;4289350;33;43875;-89
2022/04/07 01:57:11;;;;;;;;;;;9.90;99.90;;;;;;4289246;33;43038;-89
2022/04/07 01:59:39;;;;;;;;;;;9.90;99.90;;;;;;4289477;33;45659;-89
2022/04/07 02:02:06;;;;;;;;;;;9.90;99.90;;;;;;4289188;33;44806;-90
2022/04/07 02:04:33;;;;;;;;;;;9.90;99.90;;;;;;4289436;33;42976;-89
2022/04/07 02:07:00;;;;;;;;;;;9.90;99.90;;;;;;4289169;33;44804;-90
2022/04/07 02:09:28;;;;;;;;;;;9.90;99.90;;;;;;4289583;33;44269;-90
2022/04/07 02:11:55;;;;;;;;;;;9.90;99.90;;;;;;4289413;33;44038;-90
2022/04/07 02:14:22;;;;;;;;;;;9.90;99.90;;;;;;4289418;33;44774;-90
2022/04/07 02:16:49;;;;;;;;;;;9.90;99.90;;;;;;4302014;33;46151;-89
2022/04/07 02:19:16;;;;;;;;;;;9.90;99.90;;;;;;4288836;33;42727;-89
2022/04/07 02:21:45;;;;;;;;;;;9.90;99.90;;;;;;4288842;33;43269;-89
2022/04/07 02:24:14;;;;;;;;;;;9.90;99.90;;;;;;4288668;33;44260;-89
2022/04/07 02:26:41;;;;;;;;;;;9.90;99.90;;;;;;4289233;33;43070;-89
2022/04/07 02:29:08;;;;;;;;;;;9.90;99.90;;;;;;4289207;33;45123;-89
2022/04/07 02:31:35;;;;;;;;;;;9.90;99.90;;;;;;4288666;33;44372;-90
2022/04/07 02:34:02;;;;;;;;;;;9.90;99.90;;;;;;4301964;33;43813;-90
2022/04/07 02:36:30;;;;;;;;;;;9.90;99.90;;;;;;4302066;33;42324;-90
2022/04/07 02:38:57;;;;;;;;;;;9.90;99.90;;;;;;4288733;33;43818;-89
2022/04/07 02:41:31;;;;;;;;;;;9.90;99.90;;;;;;4290504;33;20018;-89
2022/04/07 02:43:58;;;;;;;;;;;10.00;99.90;;;;;;4288749;33;43938;-90
2022/04/07 02:46:25;;;;;;;;;;;9.90;99.90;;;;;;4301638;33;43249;-90
2022/04/07 02:48:52;;;;;;;;;;;9.90;99.90;;;;;;4288599;33;44832;-89
2022/04/07 02:51:19;;;;;;;;;;;10.00;99.90;;;;;;4289178;33;42587;-89
2022/04/07 02:53:46;;;;;;;;;;;9.90;99.90;;;;;;4301630;33;43023;-89
2022/04/07 02:56:13;;;;;;;;;;;10.00;99.90;;;;;;4288860;33;44970;-89
2022/04/07 02:58:40;;;;;;;;;;;9.90;99.90;;;;;;4289069;33;43919;-90
2022/04/07 03:01:14;;;;;;;;;;;10.00;99.90;;;;;;4301705;33;43949;-90
2022/04/07 03:03:41;;;;;;;;;;;10.00;99.90;;;;;;4286287;33;45433;-89
2022/04/07 03:06:08;;;;;;;;;;;9.90;99.90;;;;;;4287466;33;44427;-89
2022/04/07 03:08:35;;;;;;;;;;;9.90;99.90;;;;;;4287603;33;44174;-90
2022/04/07 03:11:03;;;;;;;;;;;10.00;99.90;;;;;;4285840;33;46243;-90
2022/04/07 03:13:30;;;;;;;;;;;10.00;99.90;;;;;;4286688;33;43862;-90
2022/04/07 03:15:57;;;;;;;;;;;10.00;99.90;;;;;;4287493;33;42396;-90
2022/04/07 03:18:24;;;;;;;;;;;10.00;99.90;;;;;;4287565;33;44004;-90
2022/04/07 03:20:52;;;;;;;;;;;10.00;99.90;;;;;;4286388;33;43727;-90
2022/04/07 03:23:19;;;;;;;;;;;9.90;99.90;;;;;;4286268;33;45923;-90
2022/04/07 03:25:46;;;;;;;;;;;9.90;99.90;;;;;;4286771;33;44069;-90
2022/04/07 03:28:13;;;;;;;;;;;9.90;99.90;;;;;;4286783;33;44214;-90
2022/04/07 03:30:40;;;;;;;;;;;9.90;99.90;;;;;;4287041;33;44770;-90
2022/04/07 03:33:07;;;;;;;;;;;9.90;99.90;;;;;;4286367;33;44419;-89
2022/04/07 03:35:36;;;;;;;;;;;10.00;99.90;;;;;;4286523;33;44478;-90
2022/04/07 03:38:04;;;;;;;;;;;9.90;99.90;;;;;;4286547;33;44994;-90
2022/04/07 03:40:32;;;;;;;;;;;9.90;99.90;;;;;;4286382;33;43474;-91
2022/04/07 03:43:00;;;;;;;;;;;9.90;99.90;;;;;;4286382;33;44780;-91
2022/04/07 03:45:27;;;;;;;;;;;9.90;99.90;;;;;;4286680;33;45711;-90
2022/04/07 03:47:54;;;;;;;;;;;9.90;99.90;;;;;;4286366;33;44845;-90
2022/04/07 03:50:21;;;;;;;;;;;9.90;99.90;;;;;;4286304;33;43323;-90
2022/04/07 03:52:48;;;;;;;;;;;9.90;99.90;;;;;;4287107;33;43766;-91
2022/04/07 03:55:16;;;;;;;;;;;9.90;99.90;;;;;;4286870;33;44898;-90
2022/04/07 03:57:43;;;;;;;;;;;9.90;99.90;;;;;;4288980;33;43481;-91
2022/04/07 04:00:10;;;;;;;;;;;9.90;99.90;;;;;;4288884;33;42925;-91
2022/04/07 04:02:37;;;;;;;;;;;9.90;99.90;;;;;;4288715;33;44776;-91
2022/04/07 04:05:11;;;;;;;;;;;9.90;99.90;;;;;;4288794;33;45918;-90
2022/04/07 04:07:38;;;;;;;;;;;9.90;99.90;;;;;;4288642;33;43471;-88
2022/04/07 04:10:05;;;;;;;;;;;9.90;99.90;;;;;;4289456;33;44158;-88
2022/04/07 04:12:32;;;;;;;;;;;9.90;99.90;;;;;;4288721;33;45263;-89
2022/04/07 04:15:01;;;;;;;;;;;9.90;99.90;;;;;;4288332;33;44678;-89
2022/04/07 04:17:29;;;;;;;;;;;9.90;99.90;;;;;;4288520;33;44663;-90
2022/04/07 04:19:56;;;;;;;;;;;9.90;99.90;;;;;;4288430;33;45693;-91
2022/04/07 04:22:23;;;;;;;;;;;9.90;99.90;;;;;;4288078;33;44466;-89
2022/04/07 04:24:50;;;;;;;;;;;9.90;99.90;;;;;;4287643;33;43970;-89
2022/04/07 04:27:17;;;;;;;;;;;9.90;99.90;;;;;;4288231;33;44776;-89
2022/04/07 04:29:44;;;;;;;;;;;9.90;99.90;;;;;;4287647;33;45887;-89
2022/04/07 04:32:12;;;;;;;;;;;9.90;99.90;;;;;;4287478;33;44986;-89
2022/04/07 04:34:39;;;;;;;;;;;9.90;99.90;;;;;;4288047;33;42722;-89
2022/04/07 04:37:06;;;;;;;;;;;9.90;99.90;;;;;;4287509;33;45359;-89
2022/04/07 04:39:36;;;;;;;;;;;9.90;99.90;;;;;;4287927;33;44720;-88
2022/04/07 04:42:07;;;;;;;;;;;9.90;99.90;;;;;;4287911;33;43601;-88
2022/04/07 04:44:34;;;;;;;;;;;9.90;99.90;;;;;;4287486;33;43961;-90
2022/04/07 04:47:01;;;;;;;;;;;9.90;99.90;;;;;;4287273;33;42675;-89
2022/04/07 04:49:28;;;;;;;;;;;9.90;99.90;;;;;;4287451;33;44277;-89
2022/04/07 04:51:55;;;;;;;;;;;9.90;99.90;;;;;;4288639;33;43343;-90
2022/04/07 04:54:22;;;;;;;;;;;9.80;99.90;;;;;;4287570;33;44964;-89
2022/04/07 04:56:49;;;;;;;;;;;9.90;99.90;;;;;;4287233;33;42465;-89
2022/04/07 04:59:16;;;;;;;;;;;9.90;99.90;;;;;;4287231;33;43473;-88
2022/04/07 05:01:43;;;;;;;;;;;9.90;99.90;;;;;;4287467;33;44200;-88
2022/04/07 05:04:11;;;;;;;;;;;9.90;99.90;;;;;;4287586;33;45771;-89
2022/04/07 05:06:38;;;;;;;;;;;9.80;99.90;;;;;;4287157;33;44069;-87
2022/04/07 05:09:05;;;;;;;;;;;9.90;99.90;;;;;;4287772;33;44302;-89
2022/04/07 05:11:33;;;;;;;;;;;9.80;99.90;;;;;;4287747;33;44030;-88
2022/04/07 05:14:00;;;;;;;;;;;9.80;99.90;;;;;;4287325;33;46007;-87
2022/04/07 05:16:27;;;;;;;;;;;9.80;99.90;;;;;;4286906;33;43775;-88
2022/04/07 05:18:55;;;;;;;;;;;9.80;99.90;;;;;;4287245;33;43117;-89
2022/04/07 05:21:22;;;;;;;;;;;9.80;99.90;;;;;;4287308;33;44395;-90
2022/04/07 05:23:49;;;;;;;;;;;9.80;99.90;;;;;;4287014;33;45673;-90
2022/04/07 05:26:16;;;;;;;;;;;9.80;99.90;;;;;;4287720;33;44713;-90
2022/04/07 05:28:43;;;;;;;;;;;9.80;99.90;;;;;;4287457;33;44908;-90
2022/04/07 05:31:10;;;;;;;;;;;9.80;99.90;;;;;;4287127;33;42689;-88
2022/04/07 05:33:38;;;;;;;;;;;9.80;99.90;;;;;;4287282;33;44166;-90
2022/04/07 05:36:05;;;;;;;;;;;9.80;99.90;;;;;;4287164;33;45692;-88
2022/04/07 05:38:32;;;;;;;;;;;9.80;99.90;;;;;;4286647;33;44190;-88
2022/04/07 05:40:59;;;;;;;;;;;9.80;99.90;;;;;;4287611;33;43276;-88
2022/04/07 05:43:26;;;;;;;;;;;9.80;99.90;;;;;;4286269;33;44934;-89
2022/04/07 05:45:53;;;;;;;;;;;9.70;99.90;;;;;;4287168;33;44797;-88
2022/04/07 05:48:20;;;;;;;;;;;9.80;99.90;;;;;;4286429;33;43212;-88
2022/04/07 05:50:47;;;;;;;;;;;9.80;99.90;;;;;;4286703;33;43707;-88
2022/04/07 05:53:15;;;;;;;;;;;9.80;99.90;;;;;;4287866;33;45009;-88
2022/04/07 05:55:42;;;;;;;;;;;9.70;99.90;;;;;;4286954;33;45935;-88
2022/04/07 05:58:09;;;;;;;;;;;9.70;99.90;;;;;;4286633;33;43178;-89
2022/04/07 06:00:37;;;;;;;;;;;9.70;99.90;;;;;;4286365;33;45800;-88
2022/04/07 06:03:04;;;;;;;;;;;9.70;99.90;;;;;;4286348;33;44989;-88
2022/04/07 06:05:31;;;;;;;;;;;9.80;99.90;;;;;;4287069;33;43990;-88
2022/04/07 06:07:59;;;;;;;;;;;9.70;99.90;;;;;;4286690;33;43142;-89
2022/04/07 06:10:27;;;;;;;;;;;9.70;99.90;;;;;;4286617;33;44851;-89
2022/04/07 06:12:54;;;;;;;;;;;9.70;99.90;;;;;;4286789;33;44342;-90
2022/04/07 06:15:21;;;;;;;;;;;9.70;99.90;;;;;;4288100;33;44178;-90
2022/04/07 06:17:50;;;;;;;;;;;9.70;99.90;;;;;;4285768;33;44869;-90
2022/04/07 06:20:17;;;;;;;;;;;9.70;99.90;;;;;;4286735;33;44975;-90
2022/04/07 06:22:45;;;;;;;;;;;9.70;99.90;;;;;;4286870;33;46097;-86
2022/04/07 06:25:12;;;;;;;;;;;9.70;99.90;;;;;;4286750;33;43678;-91
2022/04/07 06:27:40;;;;;;;;;;;9.70;99.90;;;;;;4286942;33;44845;-90
2022/04/07 06:30:11;;;;;;;;;;;9.70;99.90;;;;;;4286159;33;45345;-87
2022/04/07 06:32:38;;;;;;;;;;;9.70;99.90;;;;;;4286913;33;43478;-86
2022/04/07 06:35:07;;;;;;;;;;;9.70;99.90;;;;;;4286773;33;44868;-91
2022/04/07 06:37:44;;;;;;;;;;;9.70;99.90;;;;;;4286755;33;45744;-90
2022/04/07 06:40:12;;;;;;;;;;;9.70;99.90;;;;;;4287761;33;46018;-90
2022/04/07 06:42:39;;;;;;;;;;;9.70;99.90;;;;;;4287725;33;44459;-89
2022/04/07 06:45:07;;;;;;;;;;;9.70;99.90;;;;;;4287386;33;43450;-88
2022/04/07 06:47:38;;;;;;;;;;;9.70;99.90;;;;;;4287603;33;45924;-90
2022/04/07 06:50:06;;;;;;;;;;;9.70;99.90;;;;;;4286711;33;43343;-90
2022/04/07 06:52:33;;;;;;;;;;;9.70;99.90;;;;;;4286059;33;43124;-91
2022/04/07 06:55:00;;;;;;;;;;;9.70;99.90;;;;;;4286923;33;43582;-91
2022/04/07 06:57:27;;;;;;;;;;;9.70;99.90;;;;;;4286367;33;44378;-91
2022/04/07 06:59:54;;;;;;;;;;;9.70;99.90;;;;;;4286858;33;43334;-87
2022/04/07 07:02:22;;;;;;;;;;;9.70;99.90;;;;;;4286316;33;44028;-91
2022/04/07 07:04:49;;;;;;;;;;;9.70;99.90;;;;;;4286546;33;44557;-89
2022/04/07 07:07:17;;;;;;;;;;;9.80;99.90;;;;;;4286905;33;44115;-89
2022/04/07 07:09:44;;;;;;;;;;;9.70;99.90;;;;;;4285958;33;43508;-89
2022/04/07 07:12:11;;;;;;;;;;;9.80;99.90;;;;;;4286354;33;43316;-91
2022/04/07 07:14:38;;;;;;;;;;;9.80;99.90;;;;;;4286412;33;44375;-89
2022/04/07 07:17:07;;;;;;;;;;;9.80;99.90;;;;;;4286646;33;44818;-89
2022/04/07 07:19:34;;;;;;;;;;;9.80;99.90;;;;;;4286379;33;45870;-89
2022/04/07 07:22:01;;;;;;;;;;;9.80;99.90;;;;;;4287160;33;45121;-88
2022/04/07 07:24:28;;;;;;;;;;;9.80;99.90;;;;;;4285854;33;44759;-88
2022/04/07 07:26:55;;;;;;;;;;;9.80;99.90;;;;;;4286037;33;45815;-90
2022/04/07 07:29:22;;;;;;;;;;;9.80;99.90;;;;;;4287327;33;45509;-87
2022/04/07 07:31:49;;;;;;;;;;;9.80;99.90;;;;;;4289855;33;44578;-87
2022/04/07 07:34:16;;;;;;;;;;;9.90;99.90;;;;;;4289231;33;43092;-89
2022/04/07 07:36:43;;;;;;;;;;;9.90;99.90;;;;;;4288775;33;44146;-90
2022/04/07 07:39:11;;;;;;;;;;;9.90;99.90;;;;;;4288585;33;42262;-91
2022/04/07 07:41:38;;;;;;;;;;;9.90;99.90;;;;;;4288842;33;42528;-89
2022/04/07 07:44:05;;;;;;;;;;;9.90;99.90;;;;;;4289135;33;43092;-91
2022/04/07 07:46:34;;;;;;;;;;;9.90;99.90;;;;;;4289041;33;44597;-90
2022/04/07 07:49:01;;;;;;;;;;;9.90;99.90;;;;;;4288450;33;44937;-90
2022/04/07 07:51:28;;;;;;;;;;;9.90;99.90;;;;;;4288932;33;45022;-89
2022/04/07 07:53:55;;;;;;;;;;;10.00;99.90;;;;;;4289994;33;44768;-90
2022/04/07 07:56:22;;;;;;;;;;;9.90;99.90;;;;;;4289377;33;45771;-89
2022/04/07 07:58:49;;;;;;;;;;;10.00;99.90;;;;;;4289023;33;43301;-91
2022/04/07 08:01:17;;;;;;;;;;;10.00;99.90;;;;;;4289535;33;45009;-91
2022/04/07 08:03:44;;;;;;;;;;;10.00;99.90;;;;;;4289088;33;44982;-89
2022/04/07 08:06:11;;;;;;;;;;;10.00;99.90;;;;;;4289615;33;45544;-89
2022/04/07 08:08:38;;;;;;;;;;;10.00;99.90;;;;;;4288979;33;42261;-90
2022/04/07 08:11:13;;;;;;;;;;;10.00;99.90;;;;;;4288979;33;44175;-91
2022/04/07 08:13:40;;;;;;;;;;;10.10;99.90;;;;;;4288561;33;44465;-90
2022/04/07 08:16:07;;;;;;;;;;;10.10;99.90;;;;;;4288503;33;44988;-89
2022/04/07 08:18:34;;;;;;;;;;;10.10;99.90;;;;;;4287996;33;43492;-89
2022/04/07 08:21:02;;;;;;;;;;;10.10;99.90;;;;;;4288067;33;45212;-90
2022/04/07 08:23:29;;;;;;;;;;;10.10;99.90;;;;;;4288340;33;43820;-91
2022/04/07 08:25:56;;;;;;;;;;;10.20;99.90;;;;;;4288731;33;44969;-90
2022/04/07 08:28:24;;;;;;;;;;;10.10;99.90;;;;;;4288871;33;45670;-91
2022/04/07 08:30:51;;;;;;;;;;;10.20;99.90;;;;;;4288716;33;42912;-89
2022/04/07 08:33:18;;;;;;;;;;;10.20;99.90;;;;;;4288493;33;42288;-91
2022/04/07 08:35:45;;;;;;;;;;;10.20;99.90;;;;;;4290004;33;42739;-87
2022/04/07 08:38:15;;;;;;;;;;;10.20;99.90;;;;;;4288609;33;44402;-92
2022/04/07 08:40:43;;;;;;;;;;;10.30;99.90;;;;;;4288287;33;44825;-91
2022/04/07 08:43:10;;;;;;;;;;;10.30;99.90;;;;;;4288626;33;44505;-92
2022/04/07 08:45:37;;;;;;;;;;;10.30;99.90;;;;;;4288226;33;44852;-89
2022/04/07 08:48:05;;;;;;;;;;;10.30;99.90;;;;;;4289004;33;43004;-92
2022/04/07 08:50:33;;;;;;;;;;;10.30;99.90;;;;;;4288420;33;44610;-87
2022/04/07 08:53:01;;;;;;;;;;;10.30;99.90;;;;;;4288130;33;43272;-89
2022/04/07 08:55:28;;;;;;;;;;;10.30;99.90;;;;;;4288076;33;42747;-90
2022/04/07 08:57:55;;;;;;;;;;;10.40;99.90;;;;;;4287680;33;45014;-91
2022/04/07 09:00:22;;;;;;;;;;;10.40;99.90;;;;;;4287853;33;44080;-90
2022/04/07 09:02:51;;;;;;;;;;;10.40;99.90;;;;;;4287771;33;44741;-91
2022/04/07 09:05:25;;;;;;;;;;;10.40;99.90;;;;;;4288345;33;44381;-90
2022/04/07 09:07:55;;;;;;;;;;;10.40;99.90;;;;;;4288074;33;45040;-91
2022/04/07 09:10:24;;;;;;;;;;;10.40;99.90;;;;;;4289104;33;45469;-92
2022/04/07 09:12:52;;;;;;;;;;;10.40;99.90;;;;;;4288342;33;45901;-91
2022/04/07 09:15:19;;;;;;;;;;;10.40;99.90;;;;;;4288002;33;45742;-91
2022/04/07 09:17:50;;;;;;;;;;;10.40;99.90;;;;;;4288553;33;44720;-92
2022/04/07 09:20:17;;;;;;;;;;;10.40;99.90;;;;;;4287872;33;43794;-91
2022/04/07 09:22:44;;;;;;;;;;;10.40;99.90;;;;;;4288249;33;44081;-92
2022/04/07 09:25:12;;;;;;;;;;;10.40;99.90;;;;;;4288284;33;43298;-91
2022/04/07 09:27:40;;;;;;;;;;;10.50;99.90;;;;;;4287726;33;45918;-88
2022/04/07 09:30:12;;;;;;;;;;;10.50;99.90;;;;;;4288494;33;45761;-88
2022/04/07 09:32:43;;;;;;;;;;;10.50;99.90;;;;;;4287399;33;43020;-89
2022/04/07 09:35:11;;;;;;;;;;;10.50;99.90;;;;;;4286976;33;45117;-88
2022/04/07 09:37:40;;;;;;;;;;;10.50;99.90;;;;;;4286923;33;44668;-90
2022/04/07 09:40:14;;;;;;;;;;;10.40;99.90;;;;;;4288429;33;44347;-90
2022/04/07 09:42:42;;;;;;;;;;;10.40;99.90;;;;;;4287334;33;44057;-90
2022/04/07 09:45:13;;;;;;;;;;;10.40;99.90;;;;;;4286752;33;43489;-89
2022/04/07 09:47:40;;;;;;;;;;;10.30;99.90;;;;;;4287560;33;44577;-89
2022/04/07 09:50:09;;;;;;;;;;;10.30;99.90;;;;;;4288211;33;44404;-88
2022/04/07 09:52:53;;;;;;;;;;;10.20;99.90;;;;;;4287621;33;44144;-91
2022/04/07 09:55:21;;;;;;;;;;;10.20;99.90;;;;;;4287933;33;44736;-92
2022/04/07 09:57:48;;;;;;;;;;;10.20;99.90;;;;;;4286916;33;45551;-91
2022/04/07 10:00:15;;;;;;;;;;;10.20;99.90;;;;;;4288400;33;45564;-90
2022/04/07 10:02:43;;;;;;;;;;;10.20;99.90;;;;;;4296168;33;44554;-91
2022/04/07 10:05:10;;;;;;;;;;;10.20;99.90;;;;;;4289999;33;44820;-91
2022/04/07 10:07:38;;;;;;;;;;;10.20;99.90;;;;;;4289349;33;45852;-91
2022/04/07 10:10:07;;;;;;;;;;;10.20;99.90;;;;;;4302724;33;43434;-86
2022/04/07 10:12:34;;;;;;;;;;;10.10;99.90;;;;;;4302072;33;44476;-89
2022/04/07 10:15:03;;;;;;;;;;;10.10;99.90;;;;;;4302639;33;45615;-91
2022/04/07 10:17:30;;;;;;;;;;;10.10;99.90;;;;;;4289031;33;44226;-89
2022/04/07 10:20:02;;;;;;;;;;;10.10;99.90;;;;;;4288778;33;42792;-89
2022/04/07 10:22:32;;;;;;;;;;;10.10;99.90;;;;;;4289017;33;42988;-90
2022/04/07 10:25:03;;;;;;;;;;;10.00;99.90;;;;;;4289376;33;45064;-90
2022/04/07 10:27:38;;;;;;;;;;;10.00;99.90;;;;;;4289512;33;44763;-90
2022/04/07 10:30:06;;;;;;;;;;;10.10;99.90;;;;;;4302123;33;45690;-90
2022/04/07 10:32:34;;;;;;;;;;;10.10;99.90;;;;;;4289162;33;44131;-89
2022/04/07 10:35:01;;;;;;;;;;;10.00;99.90;;;;;;4289291;33;43884;-88
2022/04/07 10:37:29;;;;;;;;;;;10.10;99.90;;;;;;4289458;33;44740;-90
2022/04/07 10:39:56;;;;;;;;;;;10.10;99.90;;;;;;4289052;33;44536;-90
2022/04/07 10:42:42;;;;;;;;;;;10.10;99.90;;;;;;4288197;33;44754;-88
2022/04/07 10:45:11;;;;;;;;;;;10.10;99.90;;;;;;4289758;33;19998;-89
2022/04/07 10:47:39;;;;;;;;;;;10.10;99.90;;;;;;4288641;33;45106;-88
2022/04/07 10:50:08;;;;;;;;;;;10.10;99.90;;;;;;4288260;33;43366;-88
2022/04/07 10:52:35;;;;;;;;;;;10.20;99.90;;;;;;4288741;33;43407;-87
2022/04/07 10:55:09;;;;;;;;;;;10.20;99.90;;;;;;4288152;33;42750;-88
2022/04/07 10:57:56;;;;;;;;;;;10.20;99.90;;;;;;4288663;33;44956;-87
2022/04/07 11:00:37;;;;;;;;;;;10.30;99.90;;;;;;4288585;33;44764;-88
2022/04/07 11:03:15;;;;;;;;;;;10.30;99.90;;;;;;4287925;33;44900;-88
2022/04/07 11:05:52;;;;;;;;;;;10.30;99.90;;;;;;4293365;33;46151;-88
2022/04/07 11:08:20;;;;;;;;;;;10.30;99.90;;;;;;4293009;33;42646;-89
2022/04/07 11:10:48;;;;;;;;;;;10.20;99.90;;;;;;4293149;33;43478;-88
2022/04/07 11:13:15;;;;;;;;;;;10.20;99.90;;;;;;4293869;33;43313;-89
2022/04/07 11:15:42;;;;;;;;;;;10.20;99.90;;;;;;4294763;33;20483;-88
2022/04/07 11:18:39;;;;;;;;;;;10.20;99.90;;;;;;4293184;33;42971;-88
2022/04/07 11:21:10;;;;;;;;;;;10.20;99.90;;;;;;4242919;33;43601;-88
2022/04/07 11:23:38;;;;;;;;;;;10.20;99.90;;;;;;4293207;33;44283;-88
2022/04/07 11:26:19;;;;;;;;;;;10.30;99.90;;;;;;4293364;33;44907;-90
2022/04/07 11:29:04;;;;;;;;;;;10.20;99.90;;;;;;4293693;33;42633;-88
2022/04/07 11:31:45;;;;;;;;;;;10.30;99.90;;;;;;4306974;33;43197;-89
2022/04/07 11:34:31;;;;;;;;;;;10.20;99.90;;;;;;4293546;33;45485;-89
2022/04/07 11:36:58;;;;;;;;;;;10.20;99.90;;;;;;4293279;33;44167;-90
2022/04/07 11:39:25;;;;;;;;;;;10.20;99.90;;;;;;4292896;33;43515;-87
2022/04/07 11:41:54;;;;;;;;;;;10.30;99.90;;;;;;4293230;33;43486;-89
2022/04/07 11:44:24;;;;;;;;;;;10.30;99.90;;;;;;4292970;33;44889;-89
2022/04/07 11:46:52;;;;;;;;;;;10.30;99.90;;;;;;4307331;33;20438;-89
2022/04/07 11:49:20;;;;;;;;;;;10.30;99.90;;;;;;4292898;33;43478;-88
2022/04/07 11:51:47;;;;;;;;;;;10.30;99.90;;;;;;4305617;33;45403;-89
2022/04/07 11:54:17;;;;;;;;;;;10.40;99.90;;;;;;4293078;33;45742;-87
2022/04/07 11:56:45;;;;;;;;;;;10.40;99.90;;;;;;4305672;33;44179;-89
2022/04/07 11:59:13;;;;;;;;;;;10.50;99.90;;;;;;4306030;33;43509;-91
2022/04/07 12:01:41;;;;;;;;;;;10.50;99.90;;;;;;4292744;33;44167;-88
2022/04/07 12:04:09;;;;;;;;;;;10.50;99.90;;;;;;4293138;33;45613;-88
2022/04/07 12:06:41;;;;;;;;;;;10.50;99.90;;;;;;4293517;33;45646;-88
2022/04/07 12:09:08;;;;;;;;;;;10.60;99.90;;;;;;4305732;33;45197;-88
2022/04/07 12:11:36;;;;;;;;;;;10.60;99.90;;;;;;4292620;33;45873;-88
2022/04/07 12:14:04;;;;;;;;;;;10.60;99.90;;;;;;4292303;33;44644;-87
2022/04/07 12:16:33;;;;;;;;;;;10.70;99.90;;;;;;4303251;33;44801;-88
2022/04/07 12:19:01;;;;;;;;;;;10.70;99.90;;;;;;4290418;33;43604;-88
2022/04/07 12:21:29;;;;;;;;;;;10.70;99.90;;;;;;4290181;33;44939;-87
2022/04/07 12:24:16;;;;;;;;;;;10.70;99.90;;;;;;4290205;33;43042;-87
2022/04/07 12:26:44;;;;;;;;;;;10.70;99.90;;;;;;4290274;33;46465;-88
2022/04/07 12:29:12;;;;;;;;;;;10.80;99.90;;;;;;4290285;33;44982;-86
2022/04/07 12:31:40;;;;;;;;;;;10.80;99.90;;;;;;4290028;33;46002;-86
2022/04/07 12:34:09;;;;;;;;;;;10.80;99.90;;;;;;4289838;33;44926;-86
2022/04/07 12:36:37;;;;;;;;;;;10.80;99.90;;;;;;4289970;33;44055;-88
2022/04/07 12:39:18;;;;;;;;;;;10.80;99.90;;;;;;4289661;33;45533;-87
2022/04/07 12:41:50;;;;;;;;;;;10.90;99.90;;;;;;4290142;33;45022;-88
2022/04/07 12:44:21;;;;;;;;;;;10.90;99.90;;;;;;4290506;33;45280;-87
2022/04/07 12:46:55;;;;;;;;;;;10.90;99.90;;;;;;4302964;33;45362;-87
2022/04/07 12:49:26;;;;;;;;;;;10.90;99.90;;;;;;4303016;33;45700;-88
2022/04/07 12:52:07;;;;;;;;;;;10.90;99.90;;;;;;4290236;33;44257;-87
2022/04/07 12:54:35;;;;;;;;;;;10.90;99.90;;;;;;4302558;33;46083;-86
2022/04/07 12:57:06;;;;;;;;;;;10.90;99.90;;;;;;4302630;33;44662;-89
2022/04/07 12:59:33;;;;;;;;;;;11.00;99.90;;;;;;4289462;33;43450;-87
2022/04/07 13:02:00;;;;;;;;;;;11.00;99.90;;;;;;4302594;33;42854;-87
2022/04/07 13:04:54;;;;;;;;;;;11.00;99.90;;;;;;4302920;33;43466;-88
2022/04/07 13:07:21;;;;;;;;;;;11.00;99.90;;;;;;4287314;33;44572;-88
2022/04/07 13:09:49;;;;;;;;;;;11.10;99.90;;;;;;4289543;33;45905;-86
2022/04/07 13:12:16;;;;;;;;;;;11.10;99.90;;;;;;4289925;33;43636;-87
2022/04/07 13:14:44;;;;;;;;;;;11.10;99.90;;;;;;4302713;33;45177;-87
2022/04/07 13:17:12;;;;;;;;;;;11.10;99.90;;;;;;4289309;33;44306;-88
2022/04/07 13:19:39;;;;;;;;;;;11.10;99.90;;;;;;4290667;33;19995;-87
2022/04/07 13:22:06;;;;;;;;;;;11.20;99.90;;;;;;4289193;33;44750;-87
2022/04/07 13:24:34;;;;;;;;;;;11.20;99.90;;;;;;4289639;33;44952;-88
2022/04/07 13:27:01;;;;;;;;;;;11.20;99.90;;;;;;4289032;33;43204;-88
2022/04/07 13:29:29;;;;;;;;;;;11.20;99.90;;;;;;4289575;33;45485;-87
2022/04/07 13:31:56;;;;;;;;;;;11.20;99.90;;;;;;4289456;33;45741;-87
2022/04/07 13:34:24;;;;;;;;;;;11.20;99.90;;;;;;4302449;33;44830;-88
2022/04/07 13:36:51;;;;;;;;;;;11.20;99.90;;;;;;4289265;33;43068;-85
2022/04/07 13:39:18;;;;;;;;;;;11.30;99.90;;;;;;4289578;33;44960;-88
2022/04/07 13:41:45;;;;;;;;;;;11.30;99.90;;;;;;4288898;33;43819;-87
2022/04/07 13:44:13;;;;;;;;;;;11.30;99.90;;;;;;4289416;33;44664;-86
2022/04/07 13:46:40;;;;;;;;;;;11.30;99.90;;;;;;4288965;33;45802;-88
2022/04/07 13:49:07;;;;;;;;;;;11.30;99.90;;;;;;4289389;33;44573;-88
2022/04/07 13:51:35;;;;;;;;;;;11.30;99.90;;;;;;4289364;33;44975;-88
2022/04/07 13:54:02;;;;;;;;;;;11.30;99.90;;;;;;4289358;33;43820;-87
2022/04/07 13:56:29;;;;;;;;;;;11.30;99.90;;;;;;4302283;33;44899;-89
2022/04/07 13:58:56;;;;;;;;;;;11.30;99.90;;;;;;4289168;33;43264;-88
2022/04/07 14:01:23;;;;;;;;;;;11.30;99.90;;;;;;4301817;33;43032;-89
2022/04/07 14:03:53;;;;;;;;;;;11.30;99.90;;;;;;4289154;33;45029;-85
2022/04/07 14:06:20;;;;;;;;;;;11.30;99.90;;;;;;4288649;33;43309;-88
2022/04/07 14:08:48;;;;;;;;;;;11.40;99.90;;;;;;4288857;33;43735;-87
2022/04/07 14:11:17;;;;;;;;;;;11.40;99.90;;;;;;4288987;33;45098;-87
2022/04/07 14:13:44;;;;;;;;;;;11.40;99.90;;;;;;4301789;33;44026;-87
2022/04/07 14:16:17;;;;;;;;;;;11.40;99.90;;;;;;4289527;33;44001;-86
2022/04/07 14:18:45;;;;;;;;;;;11.40;99.90;;;;;;4287980;33;45390;-87
2022/04/07 14:21:13;;;;;;;;;;;11.40;99.90;;;;;;4289465;33;20371;-88
2022/04/07 14:23:40;;;;;;;;;;;11.40;99.90;;;;;;4288944;33;43478;-88
2022/04/07 14:26:08;;;;;;;;;;;11.40;99.90;;;;;;4288283;33;44261;-88
2022/04/07 14:28:35;;;;;;;;;;;11.30;99.90;;;;;;4301373;33;45563;-88
2022/04/07 14:31:02;;;;;;;;;;;11.30;99.90;;;;;;4288750;33;44019;-86